createdAt,value
2018-10-02T00:00:42.498Z,45.90
2018-10-02T00:01:42.664Z,46.63
2018-10-02T00:02:42.840Z,49.80
2018-10-02T00:03:43.018Z,51.51
2018-10-02T00:04:43.191Z,62.74
2018-10-02T00:07:43.701Z,46.88
2018-10-02T00:08:43.875Z,58.59
2018-10-02T00:09:44.055Z,46.63
2018-10-02T00:10:44.224Z,50.54
2018-10-02T00:12:44.566Z,58.35
2018-10-02T00:13:44.737Z,63.96
2018-10-02T00:14:44.911Z,59.81
2018-10-02T00:15:45.089Z,58.35
2018-10-02T00:17:45.426Z,47.12
2018-10-02T00:18:45.597Z,65.43
2018-10-02T00:19:45.771Z,58.35
2018-10-02T00:20:45.944Z,59.33
2018-10-02T00:21:46.120Z,48.10
2018-10-02T00:22:46.296Z,57.86
2018-10-02T00:23:46.471Z,63.96
2018-10-02T00:24:46.643Z,47.85
2018-10-02T00:25:46.815Z,51.51
2018-10-02T00:26:46.986Z,53.47
2018-10-02T00:27:47.156Z,46.14
2018-10-02T00:28:47.334Z,56.40
2018-10-02T00:29:47.509Z,52.49
2018-10-02T00:30:47.683Z,49.32
2018-10-02T00:31:47.880Z,47.12
2018-10-02T00:32:48.033Z,47.61
2018-10-02T00:33:48.207Z,47.61
2018-10-02T00:34:48.375Z,49.32
2018-10-02T00:35:48.550Z,48.83
2018-10-02T00:36:48.721Z,47.36
2018-10-02T00:37:48.897Z,48.10
2018-10-02T00:38:49.067Z,54.44
2018-10-02T00:39:49.241Z,58.59
2018-10-02T00:40:49.415Z,64.70
2018-10-02T00:41:49.585Z,47.36
2018-10-02T00:42:49.760Z,57.13
2018-10-02T00:43:49.933Z,47.12
2018-10-02T00:44:50.105Z,49.56
2018-10-02T00:45:50.279Z,47.36
2018-10-02T00:46:50.452Z,48.34
2018-10-02T00:47:50.629Z,47.36
2018-10-02T00:48:50.802Z,46.63
2018-10-02T00:49:50.971Z,57.86
2018-10-02T00:50:51.146Z,47.12
2018-10-02T00:51:51.321Z,57.62
2018-10-02T00:52:51.493Z,50.54
2018-10-02T00:53:51.665Z,49.32
2018-10-02T00:54:51.841Z,58.35
2018-10-02T00:55:52.017Z,58.84
2018-10-02T00:56:52.186Z,49.07
2018-10-02T00:57:52.370Z,49.07
2018-10-02T00:58:52.533Z,51.27
2018-10-02T00:59:52.703Z,58.59
2018-10-02T01:00:52.862Z,47.61
2018-10-02T01:01:53.047Z,50.78
2018-10-02T01:02:53.214Z,52.98
2018-10-02T01:03:53.383Z,58.84
2018-10-02T01:04:53.557Z,48.10
2018-10-02T01:05:53.730Z,63.72
2018-10-02T01:06:53.904Z,49.07
2018-10-02T01:07:54.072Z,49.07
2018-10-02T01:08:54.247Z,52.73
2018-10-02T01:09:54.423Z,49.56
2018-10-02T01:10:54.598Z,60.79
2018-10-02T01:11:54.767Z,56.15
2018-10-02T01:12:54.941Z,48.83
2018-10-02T01:13:55.113Z,53.47
2018-10-02T01:14:55.288Z,55.66
2018-10-02T01:15:55.460Z,49.07
2018-10-02T01:16:55.632Z,47.85
2018-10-02T01:17:55.855Z,54.93
2018-10-02T01:18:55.986Z,56.40
2018-10-02T01:19:56.153Z,50.05
2018-10-02T01:20:56.322Z,52.25
2018-10-02T01:21:56.495Z,56.64
2018-10-02T01:22:56.670Z,49.32
2018-10-02T01:23:56.842Z,50.78
2018-10-02T01:24:57.015Z,51.27
2018-10-02T01:25:57.190Z,57.62
2018-10-02T01:26:57.367Z,51.03
2018-10-02T01:27:57.535Z,53.22
2018-10-02T01:28:57.717Z,56.15
2018-10-02T01:29:57.881Z,52.25
2018-10-02T01:30:58.052Z,53.47
2018-10-02T01:31:58.224Z,58.11
2018-10-02T01:32:58.401Z,49.80
2018-10-02T01:33:58.576Z,54.69
2018-10-02T01:34:58.751Z,55.66
2018-10-02T01:35:58.919Z,52.49
2018-10-02T01:36:59.093Z,47.61
2018-10-02T01:37:59.265Z,53.96
2018-10-02T01:38:59.438Z,60.30
2018-10-02T01:39:59.610Z,56.40
2018-10-02T01:40:59.788Z,58.11
2018-10-02T01:41:59.981Z,52.00
2018-10-02T01:43:00.137Z,56.15
2018-10-02T01:44:00.315Z,48.10
2018-10-02T01:45:00.487Z,52.73
2018-10-02T01:46:00.662Z,56.40
2018-10-02T01:47:00.896Z,51.03
2018-10-02T01:48:01.006Z,57.37
2018-10-02T01:49:01.184Z,50.78
2018-10-02T01:50:01.361Z,59.33
2018-10-02T01:51:01.531Z,56.64
2018-10-02T01:52:01.703Z,59.08
2018-10-02T01:53:01.876Z,57.37
2018-10-02T01:54:02.037Z,62.74
2018-10-02T01:55:02.223Z,57.86
2018-10-02T01:56:02.395Z,49.32
2018-10-02T01:57:02.578Z,55.42
2018-10-02T01:58:02.743Z,49.32
2018-10-02T01:59:02.916Z,51.51
2018-10-02T02:00:03.090Z,51.76
2018-10-02T02:01:03.264Z,48.58
2018-10-02T02:02:03.438Z,48.58
2018-10-02T02:03:03.605Z,55.91
2018-10-02T02:04:03.779Z,53.22
2018-10-02T02:05:03.955Z,49.32
2018-10-02T02:06:04.129Z,49.07
2018-10-02T02:07:04.302Z,51.51
2018-10-02T02:08:04.474Z,49.32
2018-10-02T02:09:04.647Z,51.51
2018-10-02T02:10:04.821Z,52.00
2018-10-02T02:11:04.990Z,50.05
2018-10-02T02:12:05.164Z,56.88
2018-10-02T02:13:05.339Z,49.07
2018-10-02T02:14:05.509Z,49.32
2018-10-02T02:15:05.692Z,49.07
2018-10-02T02:16:05.854Z,51.76
2018-10-02T02:17:06.028Z,52.49
2018-10-02T02:18:06.208Z,49.56
2018-10-02T02:19:06.385Z,49.07
2018-10-02T02:20:06.571Z,52.73
2018-10-02T02:21:06.729Z,55.66
2018-10-02T02:22:06.901Z,51.03
2018-10-02T02:23:07.075Z,63.23
2018-10-02T02:24:07.256Z,59.08
2018-10-02T02:25:07.418Z,49.32
2018-10-02T02:26:07.597Z,55.42
2018-10-02T02:27:07.760Z,51.27
2018-10-02T02:28:07.940Z,49.56
2018-10-02T02:29:08.107Z,67.14
2018-10-02T02:30:08.286Z,49.32
2018-10-02T02:31:08.453Z,52.98
2018-10-02T02:32:08.626Z,59.08
2018-10-02T02:33:08.799Z,61.52
2018-10-02T02:34:08.971Z,52.98
2018-10-02T02:35:09.143Z,67.63
2018-10-02T02:36:09.324Z,62.74
2018-10-02T02:37:09.485Z,52.73
2018-10-02T02:38:09.659Z,52.25
2018-10-02T02:39:09.832Z,57.13
2018-10-02T02:40:10.019Z,58.59
2018-10-02T02:41:10.190Z,53.47
2018-10-02T02:42:10.364Z,52.25
2018-10-02T02:43:10.534Z,56.88
2018-10-02T02:44:10.697Z,59.08
2018-10-02T02:45:10.886Z,51.27
2018-10-02T02:46:11.061Z,60.30
2018-10-02T02:47:11.239Z,54.20
2018-10-02T02:48:11.410Z,70.07
2018-10-02T02:49:11.576Z,51.76
2018-10-02T02:50:11.748Z,50.05
2018-10-02T02:51:11.933Z,56.64
2018-10-02T02:52:12.108Z,57.37
2018-10-02T02:53:12.284Z,61.77
2018-10-02T02:54:12.454Z,49.56
2018-10-02T02:55:12.624Z,54.93
2018-10-02T02:56:12.796Z,64.70
2018-10-02T02:57:12.971Z,69.58
2018-10-02T02:58:13.143Z,51.03
2018-10-02T02:59:13.312Z,53.47
2018-10-02T03:00:13.486Z,55.66
2018-10-02T03:01:13.658Z,55.42
2018-10-02T03:02:13.819Z,54.20
2018-10-02T03:03:13.997Z,52.73
2018-10-02T03:04:14.166Z,52.00
2018-10-02T03:05:14.337Z,51.76
2018-10-02T03:06:14.527Z,53.96
2018-10-02T03:07:14.681Z,55.18
2018-10-02T03:08:14.850Z,51.51
2018-10-02T03:09:15.025Z,52.49
2018-10-02T03:10:15.206Z,61.04
2018-10-02T03:11:15.381Z,55.18
2018-10-02T03:12:15.552Z,54.69
2018-10-02T03:13:15.723Z,59.08
2018-10-02T03:14:15.893Z,57.13
2018-10-02T03:15:16.067Z,65.92
2018-10-02T03:16:16.235Z,56.64
2018-10-02T03:17:16.409Z,52.25
2018-10-02T03:18:16.581Z,51.76
2018-10-02T03:19:16.757Z,51.51
2018-10-02T03:20:16.926Z,51.51
2018-10-02T03:21:17.116Z,54.20
2018-10-02T03:22:17.275Z,49.80
2018-10-02T03:23:17.443Z,50.54
2018-10-02T03:24:17.615Z,52.98
2018-10-02T03:25:17.789Z,52.98
2018-10-02T03:26:17.958Z,52.00
2018-10-02T03:27:18.131Z,76.90
2018-10-02T03:28:18.303Z,74.95
2018-10-02T03:29:18.474Z,66.41
2018-10-02T03:30:18.647Z,60.30
2018-10-02T03:31:18.828Z,51.76
2018-10-02T03:32:18.998Z,52.98
2018-10-02T03:33:19.161Z,53.71
2018-10-02T03:34:19.333Z,57.62
2018-10-02T03:35:19.504Z,58.84
2018-10-02T03:36:19.676Z,49.80
2018-10-02T03:37:19.849Z,50.54
2018-10-02T03:38:20.020Z,49.80
2018-10-02T03:39:20.196Z,50.05
2018-10-02T03:40:20.362Z,63.23
2018-10-02T03:41:20.539Z,55.42
2018-10-02T03:42:20.709Z,64.45
2018-10-02T03:43:20.880Z,51.03
2018-10-02T03:44:21.055Z,50.78
2018-10-02T03:45:21.231Z,50.54
2018-10-02T03:46:21.397Z,66.16
2018-10-02T03:47:21.581Z,61.77
2018-10-02T03:48:21.739Z,53.96
2018-10-02T03:49:21.912Z,69.34
2018-10-02T03:50:22.088Z,66.65
2018-10-02T03:51:22.253Z,50.78
2018-10-02T03:52:22.431Z,53.47
2018-10-02T03:53:22.603Z,54.69
2018-10-02T03:54:22.770Z,56.15
2018-10-02T03:55:22.948Z,51.03
2018-10-02T03:56:23.118Z,61.77
2018-10-02T03:57:23.304Z,55.91
2018-10-02T03:58:23.467Z,52.49
2018-10-02T03:59:23.636Z,54.44
2018-10-02T04:00:23.823Z,69.58
2018-10-02T04:01:23.984Z,64.70
2018-10-02T04:02:24.154Z,55.66
2018-10-02T04:03:24.345Z,53.22
2018-10-02T04:04:24.493Z,55.66
2018-10-02T04:05:24.672Z,63.72
2018-10-02T04:06:24.839Z,55.66
2018-10-02T04:07:25.013Z,59.57
2018-10-02T04:08:25.183Z,60.79
2018-10-02T04:09:25.355Z,61.52
2018-10-02T04:10:25.534Z,55.91
2018-10-02T04:11:25.700Z,76.17
2018-10-02T04:12:25.872Z,58.11
2018-10-02T04:13:26.044Z,62.26
2018-10-02T04:14:26.222Z,70.56
2018-10-02T04:15:26.395Z,67.14
2018-10-02T04:16:26.557Z,59.08
2018-10-02T04:17:26.733Z,68.12
2018-10-02T04:18:26.905Z,70.31
2018-10-02T04:19:27.080Z,58.84
2018-10-02T04:20:27.248Z,64.94
2018-10-02T04:21:27.419Z,59.81
2018-10-02T04:22:27.589Z,55.18
2018-10-02T04:23:27.761Z,61.28
2018-10-02T04:24:27.942Z,61.28
2018-10-02T04:25:28.114Z,62.99
2018-10-02T04:26:28.286Z,60.55
2018-10-02T04:27:28.458Z,57.62
2018-10-02T04:28:28.986Z,62.74
2018-10-02T04:29:28.814Z,58.35
2018-10-02T04:30:28.986Z,68.60
2018-10-02T04:31:29.164Z,57.62
2018-10-02T04:32:29.335Z,59.57
2018-10-02T04:33:29.501Z,59.57
2018-10-02T04:34:29.680Z,59.33
2018-10-02T04:35:29.847Z,58.84
2018-10-02T04:36:30.022Z,57.86
2018-10-02T04:37:30.195Z,62.74
2018-10-02T04:38:30.367Z,58.35
2018-10-02T04:39:30.575Z,62.50
2018-10-02T04:40:30.711Z,56.64
2018-10-02T04:41:30.897Z,56.15
2018-10-02T04:42:31.061Z,61.04
2018-10-02T04:43:31.236Z,54.44
2018-10-02T04:44:31.407Z,55.66
2018-10-02T04:45:31.578Z,68.60
2018-10-02T04:46:31.751Z,57.62
2018-10-02T04:47:31.923Z,55.91
2018-10-02T04:48:32.098Z,55.66
2018-10-02T04:49:32.276Z,60.30
2018-10-02T04:50:32.455Z,64.70
2018-10-02T04:51:32.641Z,60.79
2018-10-02T04:52:32.805Z,74.22
2018-10-02T04:53:32.971Z,82.28
2018-10-02T04:54:33.145Z,92.77
2018-10-02T04:55:33.318Z,95.95
2018-10-02T04:56:33.494Z,79.10
2018-10-02T04:57:33.665Z,66.16
2018-10-02T04:58:33.837Z,55.42
2018-10-02T04:59:34.012Z,66.41
2018-10-02T05:00:34.188Z,67.38
2018-10-02T05:01:34.361Z,79.59
2018-10-02T05:02:34.546Z,79.83
2018-10-02T05:03:34.716Z,78.37
2018-10-02T05:04:34.886Z,79.10
2018-10-02T05:05:35.059Z,79.10
2018-10-02T05:06:35.234Z,79.35
2018-10-02T05:07:35.411Z,68.60
2018-10-02T05:08:35.623Z,65.19
2018-10-02T05:09:35.754Z,61.28
2018-10-02T05:10:35.927Z,65.43
2018-10-02T05:11:36.102Z,62.99
2018-10-02T05:12:36.273Z,67.87
2018-10-02T05:13:36.445Z,60.79
2018-10-02T05:14:36.621Z,67.63
2018-10-02T05:15:36.792Z,65.67
2018-10-02T05:16:36.971Z,67.87
2018-10-02T05:17:37.137Z,60.79
2018-10-02T05:18:37.315Z,59.33
2018-10-02T05:19:37.476Z,61.77
2018-10-02T05:20:37.658Z,62.74
2018-10-02T05:21:37.828Z,73.49
2018-10-02T05:22:38.002Z,73.24
2018-10-02T05:23:38.172Z,71.78
2018-10-02T05:24:38.349Z,61.77
2018-10-02T05:25:38.526Z,61.28
2018-10-02T05:26:38.696Z,74.95
2018-10-02T05:27:38.900Z,64.94
2018-10-02T05:28:39.035Z,58.84
2018-10-02T05:29:39.209Z,69.58
2018-10-02T05:30:39.382Z,64.21
2018-10-02T05:31:39.557Z,62.99
2018-10-02T05:32:39.727Z,64.70
2018-10-02T05:33:39.938Z,67.87
2018-10-02T05:34:40.083Z,69.58
2018-10-02T05:35:40.251Z,77.15
2018-10-02T05:36:40.419Z,61.04
2018-10-02T05:37:40.580Z,62.99
2018-10-02T05:38:40.751Z,61.28
2018-10-02T05:39:40.934Z,58.11
2018-10-02T05:40:41.097Z,64.45
2018-10-02T05:41:41.274Z,62.74
2018-10-02T05:42:41.457Z,59.57
2018-10-02T05:43:41.616Z,60.79
2018-10-02T05:44:41.789Z,63.48
2018-10-02T05:45:41.962Z,67.87
2018-10-02T05:46:42.140Z,77.88
2018-10-02T05:47:42.306Z,60.79
2018-10-02T05:48:42.480Z,68.60
2018-10-02T05:49:42.655Z,63.48
2018-10-02T05:50:42.925Z,62.50
2018-10-02T05:51:43.000Z,71.29
2018-10-02T05:52:43.175Z,76.42
2018-10-02T05:53:43.346Z,62.01
2018-10-02T05:54:43.521Z,63.48
2018-10-02T05:55:43.698Z,62.99
2018-10-02T05:56:43.867Z,71.78
2018-10-02T05:57:44.042Z,71.78
2018-10-02T05:58:44.217Z,71.78
2018-10-02T05:59:44.383Z,69.82
2018-10-02T06:00:44.566Z,68.12
2018-10-02T06:01:44.743Z,67.87
2018-10-02T06:02:44.910Z,58.35
2018-10-02T06:03:45.131Z,58.35
2018-10-02T06:04:45.263Z,69.09
2018-10-02T06:05:45.431Z,61.04
2018-10-02T06:06:45.598Z,65.92
2018-10-02T06:07:45.774Z,65.92
2018-10-02T06:08:45.949Z,63.96
2018-10-02T06:09:46.158Z,67.63
2018-10-02T06:10:46.293Z,68.12
2018-10-02T06:11:46.480Z,61.04
2018-10-02T06:12:46.639Z,62.50
2018-10-02T06:13:46.809Z,62.74
2018-10-02T06:14:46.986Z,59.08
2018-10-02T06:15:47.155Z,66.89
2018-10-02T06:16:47.327Z,61.04
2018-10-02T06:17:47.496Z,63.96
2018-10-02T06:18:47.728Z,69.58
2018-10-02T06:19:47.839Z,65.92
2018-10-02T06:20:48.026Z,57.62
2018-10-02T06:21:48.193Z,66.41
2018-10-02T06:22:48.371Z,65.92
2018-10-02T06:23:48.544Z,65.43
2018-10-02T06:24:48.768Z,63.48
2018-10-02T06:25:48.889Z,61.77
2018-10-02T06:26:49.070Z,64.45
2018-10-02T06:27:49.240Z,64.70
2018-10-02T06:28:49.405Z,63.72
2018-10-02T06:29:49.585Z,72.75
2018-10-02T06:30:49.760Z,69.09
2018-10-02T06:31:49.928Z,66.89
2018-10-02T06:32:50.290Z,56.64
2018-10-02T06:33:50.271Z,62.99
2018-10-02T06:34:50.452Z,63.48
2018-10-02T06:35:50.625Z,64.45
2018-10-02T06:36:50.817Z,62.99
2018-10-02T06:37:50.966Z,65.43
2018-10-02T06:38:51.208Z,63.23
2018-10-02T06:39:51.316Z,64.70
2018-10-02T06:40:51.494Z,62.99
2018-10-02T06:41:51.665Z,62.99
2018-10-02T06:42:51.841Z,64.94
2018-10-02T06:43:52.012Z,67.38
2018-10-02T06:44:52.196Z,61.04
2018-10-02T06:45:52.363Z,67.63
2018-10-02T06:46:52.552Z,67.63
2018-10-02T06:47:52.705Z,64.94
2018-10-02T06:48:52.876Z,66.16
2018-10-02T06:49:53.044Z,68.36
2018-10-02T06:50:53.300Z,63.48
2018-10-02T06:51:53.575Z,77.88
2018-10-02T06:52:53.574Z,76.90
2018-10-02T06:53:53.755Z,74.95
2018-10-02T06:54:53.919Z,86.18
2018-10-02T06:55:54.100Z,93.26
2018-10-02T06:56:54.396Z,70.31
2018-10-02T06:57:54.462Z,72.02
2018-10-02T06:58:54.617Z,71.04
2018-10-02T06:59:54.792Z,82.03
2018-10-02T07:00:54.965Z,89.36
2018-10-02T07:01:55.132Z,66.41
2018-10-02T07:02:55.333Z,65.92
2018-10-02T07:03:55.485Z,74.95
2018-10-02T07:04:55.661Z,73.24
2018-10-02T07:05:55.829Z,61.77
2018-10-02T07:06:56.003Z,57.86
2018-10-02T07:07:56.177Z,95.21
2018-10-02T07:08:56.440Z,73.73
2018-10-02T07:09:56.522Z,62.74
2018-10-02T07:10:56.703Z,74.22
2018-10-02T07:11:56.871Z,92.04
2018-10-02T07:12:57.042Z,67.14
2018-10-02T07:13:57.217Z,59.81
2018-10-02T07:14:57.492Z,63.96
2018-10-02T07:15:57.565Z,65.43
2018-10-02T07:16:57.742Z,61.04
2018-10-02T07:17:57.912Z,63.96
2018-10-02T07:18:58.103Z,81.05
2018-10-02T07:19:58.273Z,62.50
2018-10-02T07:20:58.479Z,64.94
2018-10-02T07:21:58.640Z,60.30
2018-10-02T07:22:58.843Z,90.09
2018-10-02T07:23:58.963Z,74.22
2018-10-02T07:24:59.188Z,63.23
2018-10-02T07:25:59.372Z,62.26
2018-10-02T07:26:59.587Z,59.33
2018-10-02T07:27:59.753Z,59.33
2018-10-02T07:28:59.832Z,67.63
2018-10-02T07:30:00.004Z,70.07
2018-10-02T07:31:00.327Z,68.12
2018-10-02T07:32:00.413Z,76.17
2018-10-02T07:33:00.614Z,61.28
2018-10-02T07:34:00.813Z,65.43
2018-10-02T07:35:00.885Z,67.63
2018-10-02T07:36:01.027Z,67.14
2018-10-02T07:37:01.261Z,68.36
2018-10-02T07:38:01.375Z,69.09
2018-10-02T07:39:01.635Z,69.58
2018-10-02T07:40:01.728Z,68.36
2018-10-02T07:41:01.900Z,62.99
2018-10-02T07:42:02.132Z,68.12
2018-10-02T07:43:02.251Z,68.60
2018-10-02T07:44:02.427Z,62.99
2018-10-02T07:45:02.740Z,69.09
2018-10-02T07:46:02.772Z,66.41
2018-10-02T07:47:02.957Z,70.07
2018-10-02T07:48:03.164Z,68.36
2018-10-02T07:49:03.308Z,76.66
2018-10-02T07:50:03.471Z,66.41
2018-10-02T07:51:03.756Z,79.83
2018-10-02T07:52:03.815Z,65.43
2018-10-02T07:53:03.999Z,72.27
2018-10-02T07:54:04.292Z,64.45
2018-10-02T07:55:04.316Z,65.92
2018-10-02T07:56:04.481Z,63.48
2018-10-02T07:57:04.694Z,67.14
2018-10-02T07:58:04.838Z,64.21
2018-10-02T07:59:05.006Z,71.04
2018-10-02T08:00:05.208Z,75.44
2018-10-02T08:01:05.373Z,65.43
2018-10-02T08:02:05.561Z,63.48
2018-10-02T08:03:05.756Z,63.96
2018-10-02T08:04:05.878Z,67.63
2018-10-02T08:05:06.141Z,66.89
2018-10-02T08:06:06.307Z,66.16
2018-10-02T08:07:06.388Z,64.21
2018-10-02T08:08:06.556Z,64.94
2018-10-02T08:09:06.736Z,73.49
2018-10-02T08:10:06.909Z,66.65
2018-10-02T08:11:07.076Z,71.04
2018-10-02T08:12:07.389Z,65.19
2018-10-02T08:13:07.434Z,72.75
2018-10-02T08:14:07.609Z,65.43
2018-10-02T08:15:07.774Z,75.93
2018-10-02T08:16:07.946Z,67.63
2018-10-02T08:17:08.127Z,66.41
2018-10-02T08:18:08.298Z,66.89
2018-10-02T08:19:08.468Z,69.34
2018-10-02T08:20:08.712Z,66.89
2018-10-02T08:21:08.809Z,72.75
2018-10-02T08:22:08.982Z,64.45
2018-10-02T08:23:09.209Z,65.43
2018-10-02T08:24:09.327Z,72.27
2018-10-02T08:25:09.502Z,64.70
2018-10-02T08:26:09.674Z,70.07
2018-10-02T08:27:09.917Z,63.72
2018-10-02T08:28:10.019Z,63.48
2018-10-02T08:29:10.200Z,61.04
2018-10-02T08:30:10.488Z,64.45
2018-10-02T08:31:10.551Z,64.45
2018-10-02T08:32:10.724Z,63.23
2018-10-02T08:33:11.012Z,73.00
2018-10-02T08:34:11.073Z,63.96
2018-10-02T08:35:11.313Z,62.50
2018-10-02T08:36:11.582Z,63.48
2018-10-02T08:37:11.614Z,63.96
2018-10-02T08:38:11.788Z,65.43
2018-10-02T08:39:11.964Z,62.26
2018-10-02T08:40:12.141Z,63.48
2018-10-02T08:41:12.325Z,63.23
2018-10-02T08:42:12.489Z,61.28
2018-10-02T08:43:12.686Z,72.75
2018-10-02T08:44:12.835Z,73.49
2018-10-02T08:45:13.010Z,77.15
2018-10-02T08:46:13.190Z,64.70
2018-10-02T08:47:13.371Z,72.51
2018-10-02T08:48:13.525Z,64.70
2018-10-02T08:49:13.688Z,65.67
2018-10-02T08:50:13.874Z,65.67
2018-10-02T08:51:14.048Z,62.50
2018-10-02T08:52:14.400Z,62.50
2018-10-02T08:53:14.392Z,66.41
2018-10-02T08:54:14.566Z,64.45
2018-10-02T08:55:14.739Z,64.94
2018-10-02T08:56:14.923Z,62.50
2018-10-02T08:57:15.102Z,61.77
2018-10-02T08:58:15.248Z,69.58
2018-10-02T08:59:15.445Z,63.48
2018-10-02T09:00:15.638Z,67.87
2018-10-02T09:01:15.797Z,70.80
2018-10-02T09:02:15.972Z,60.79
2018-10-02T09:03:16.311Z,64.94
2018-10-02T09:04:16.330Z,64.45
2018-10-02T09:05:16.512Z,64.94
2018-10-02T09:06:16.669Z,67.14
2018-10-02T09:07:16.851Z,65.43
2018-10-02T09:08:17.029Z,66.41
2018-10-02T09:09:17.204Z,63.23
2018-10-02T09:10:17.365Z,69.34
2018-10-02T09:11:17.542Z,63.72
2018-10-02T09:12:17.715Z,69.34
2018-10-02T09:13:17.895Z,73.97
2018-10-02T09:14:18.075Z,71.04
2018-10-02T09:15:18.241Z,67.87
2018-10-02T09:16:18.439Z,76.66
2018-10-02T09:17:18.580Z,64.45
2018-10-02T09:18:18.754Z,59.57
2018-10-02T09:19:18.927Z,62.74
2018-10-02T09:20:19.103Z,63.23
2018-10-02T09:21:19.280Z,80.81
2018-10-02T09:22:19.449Z,67.14
2018-10-02T09:23:19.626Z,65.92
2018-10-02T09:24:19.808Z,63.72
2018-10-02T09:25:19.974Z,65.92
2018-10-02T09:26:20.147Z,68.36
2018-10-02T09:27:20.329Z,63.96
2018-10-02T09:28:20.539Z,62.26
2018-10-02T09:29:20.656Z,65.19
2018-10-02T09:30:21.003Z,69.82
2018-10-02T09:31:21.023Z,75.93
2018-10-02T09:32:21.187Z,85.94
2018-10-02T09:33:21.415Z,73.00
2018-10-02T09:34:21.541Z,62.99
2018-10-02T09:35:21.706Z,59.57
2018-10-02T09:36:21.949Z,67.38
2018-10-02T09:37:22.108Z,64.70
2018-10-02T09:38:22.213Z,67.87
2018-10-02T09:39:22.385Z,62.74
2018-10-02T09:40:22.550Z,69.09
2018-10-02T09:41:22.729Z,67.63
2018-10-02T09:42:22.920Z,66.65
2018-10-02T09:43:23.120Z,65.43
2018-10-02T09:44:23.242Z,68.60
2018-10-02T09:45:23.496Z,66.16
2018-10-02T09:46:23.605Z,67.14
2018-10-02T09:47:23.761Z,63.48
2018-10-02T09:48:23.958Z,66.41
2018-10-02T09:49:24.110Z,69.82
2018-10-02T09:50:24.317Z,68.60
2018-10-02T09:51:24.446Z,67.87
2018-10-02T09:52:24.624Z,78.13
2018-10-02T09:53:24.791Z,77.15
2018-10-02T09:54:25.015Z,91.06
2018-10-02T09:55:25.147Z,69.82
2018-10-02T09:56:25.342Z,72.75
2018-10-02T09:57:25.521Z,69.09
2018-10-02T09:58:25.723Z,68.60
2018-10-02T09:59:25.977Z,65.19
2018-10-02T10:00:26.134Z,71.04
2018-10-02T10:01:26.195Z,83.25
2018-10-02T10:02:26.440Z,83.98
2018-10-02T10:03:26.544Z,84.72
2018-10-02T10:04:26.802Z,83.98
2018-10-02T10:05:26.888Z,85.94
2018-10-02T10:06:27.054Z,85.21
2018-10-02T10:07:27.304Z,69.58
2018-10-02T10:08:27.396Z,66.41
2018-10-02T10:09:27.586Z,68.12
2018-10-02T10:10:27.766Z,65.19
2018-10-02T10:11:27.922Z,64.21
2018-10-02T10:12:28.092Z,62.99
2018-10-02T10:13:28.260Z,67.38
2018-10-02T10:14:28.437Z,69.58
2018-10-02T10:15:28.620Z,69.58
2018-10-02T10:16:28.841Z,64.70
2018-10-02T10:17:28.985Z,68.36
2018-10-02T10:18:29.134Z,92.29
2018-10-02T10:19:29.304Z,67.38
2018-10-02T10:20:29.472Z,72.27
2018-10-02T10:21:29.648Z,67.14
2018-10-02T10:22:29.852Z,59.08
2018-10-02T10:23:29.996Z,61.52
2018-10-02T10:24:30.166Z,74.22
2018-10-02T10:25:30.351Z,66.16
2018-10-02T10:26:30.527Z,60.30
2018-10-02T10:27:30.703Z,59.57
2018-10-02T10:28:30.969Z,63.72
2018-10-02T10:29:31.041Z,62.26
2018-10-02T10:30:31.212Z,67.14
2018-10-02T10:31:31.400Z,64.45
2018-10-02T10:32:31.569Z,64.94
2018-10-02T10:33:31.742Z,64.21
2018-10-02T10:34:31.974Z,59.81
2018-10-02T10:35:32.080Z,68.60
2018-10-02T10:36:32.254Z,60.30
2018-10-02T10:37:32.434Z,65.43
2018-10-02T10:38:32.592Z,62.26
2018-10-02T10:39:32.771Z,60.55
2018-10-02T10:40:32.945Z,64.45
2018-10-02T10:41:33.133Z,63.48
2018-10-02T10:42:33.298Z,67.87
2018-10-02T10:43:33.483Z,67.63
2018-10-02T10:44:33.638Z,63.72
2018-10-02T10:45:33.817Z,67.63
2018-10-02T10:46:33.994Z,63.72
2018-10-02T10:47:34.185Z,60.30
2018-10-02T10:48:34.448Z,64.45
2018-10-02T10:49:34.555Z,63.72
2018-10-02T10:50:34.679Z,73.97
2018-10-02T10:51:34.911Z,65.43
2018-10-02T10:52:35.040Z,68.12
2018-10-02T10:53:35.276Z,65.19
2018-10-02T10:54:35.452Z,69.34
2018-10-02T10:55:35.524Z,67.63
2018-10-02T10:56:35.785Z,59.57
2018-10-02T10:57:35.827Z,61.04
2018-10-02T10:58:36.123Z,69.58
2018-10-02T10:59:36.174Z,69.58
2018-10-02T11:00:36.433Z,68.85
2018-10-02T11:01:36.584Z,67.63
2018-10-02T11:02:36.754Z,70.07
2018-10-02T11:03:36.917Z,64.45
2018-10-02T11:04:37.200Z,66.16
2018-10-02T11:05:37.240Z,63.96
2018-10-02T11:06:37.443Z,67.38
2018-10-02T11:07:37.637Z,64.45
2018-10-02T11:08:37.743Z,68.85
2018-10-02T11:09:37.979Z,66.41
2018-10-02T11:10:38.098Z,62.50
2018-10-02T11:11:38.258Z,68.85
2018-10-02T11:12:38.440Z,70.07
2018-10-02T11:13:38.591Z,64.45
2018-10-02T11:14:38.798Z,64.94
2018-10-02T11:15:38.939Z,66.89
2018-10-02T11:16:39.147Z,69.58
2018-10-02T11:17:39.262Z,65.19
2018-10-02T11:18:39.498Z,67.87
2018-10-02T11:19:39.659Z,69.09
2018-10-02T11:20:39.797Z,68.85
2018-10-02T11:21:39.955Z,64.94
2018-10-02T11:22:40.129Z,71.78
2018-10-02T11:23:40.307Z,62.26
2018-10-02T11:24:40.481Z,66.65
2018-10-02T11:25:40.706Z,64.45
2018-10-02T11:26:40.825Z,63.23
2018-10-02T11:27:40.993Z,68.60
2018-10-02T11:28:41.167Z,68.36
2018-10-02T11:29:41.382Z,65.67
2018-10-02T11:30:41.531Z,68.12
2018-10-02T11:31:41.692Z,69.58
2018-10-02T11:32:41.868Z,65.19
2018-10-02T11:33:42.006Z,66.89
2018-10-02T11:34:42.169Z,66.41
2018-10-02T11:35:42.342Z,65.67
2018-10-02T11:36:42.515Z,66.41
2018-10-02T11:37:42.774Z,66.16
2018-10-02T11:38:42.834Z,63.72
2018-10-02T11:39:43.006Z,66.41
2018-10-02T11:40:43.178Z,69.09
2018-10-02T11:41:43.358Z,65.43
2018-10-02T11:42:43.526Z,66.16
2018-10-02T11:43:43.867Z,63.96
2018-10-02T11:44:43.950Z,63.23
2018-10-02T11:45:44.052Z,69.58
2018-10-02T11:46:44.200Z,64.45
2018-10-02T11:47:44.369Z,72.27
2018-10-02T11:48:44.550Z,68.85
2018-10-02T11:49:44.834Z,65.19
2018-10-02T11:50:44.887Z,61.77
2018-10-02T11:51:45.039Z,66.89
2018-10-02T11:52:45.207Z,62.50
2018-10-02T11:53:45.368Z,63.48
2018-10-02T11:54:45.535Z,64.45
2018-10-02T11:55:45.768Z,63.23
2018-10-02T11:56:45.890Z,74.95
2018-10-02T11:57:46.049Z,63.96
2018-10-02T11:58:46.236Z,65.92
2018-10-02T11:59:46.405Z,63.48
2018-10-02T12:00:46.590Z,66.89
2018-10-02T12:01:46.754Z,66.16
2018-10-02T12:02:46.909Z,62.01
2018-10-02T12:03:47.205Z,65.19
2018-10-02T12:04:47.247Z,60.30
2018-10-02T12:05:47.404Z,69.34
2018-10-02T12:06:47.701Z,70.31
2018-10-02T12:07:47.767Z,66.16
2018-10-02T12:08:47.987Z,63.48
2018-10-02T12:09:48.106Z,66.65
2018-10-02T12:10:48.275Z,68.60
2018-10-02T12:11:48.450Z,61.77
2018-10-02T12:12:48.654Z,69.09
2018-10-02T12:13:48.873Z,64.45
2018-10-02T12:14:49.054Z,66.41
2018-10-02T12:15:49.140Z,66.16
2018-10-02T12:16:49.324Z,61.52
2018-10-02T12:17:49.472Z,66.89
2018-10-02T12:18:49.642Z,61.77
2018-10-02T12:19:50.077Z,64.45
2018-10-02T12:20:49.999Z,84.23
2018-10-02T12:21:50.178Z,84.96
2018-10-02T12:22:50.357Z,83.25
2018-10-02T12:23:50.560Z,84.23
2018-10-02T12:24:50.695Z,83.74
2018-10-02T12:25:50.877Z,83.74
2018-10-02T12:26:51.051Z,84.72
2018-10-02T12:27:51.229Z,86.18
2018-10-02T12:28:51.407Z,85.69
2018-10-02T12:29:51.578Z,85.94
2018-10-02T12:30:51.772Z,85.21
2018-10-02T12:31:51.917Z,73.00
2018-10-02T12:32:52.114Z,61.77
2018-10-02T12:33:52.262Z,64.45
2018-10-02T12:34:52.436Z,76.42
2018-10-02T12:35:52.623Z,63.48
2018-10-02T12:36:52.791Z,65.92
2018-10-02T12:37:52.958Z,64.21
2018-10-02T12:38:53.208Z,64.94
2018-10-02T12:39:53.315Z,67.63
2018-10-02T12:40:53.496Z,68.12
2018-10-02T12:41:53.637Z,65.67
2018-10-02T12:42:53.807Z,66.16
2018-10-02T12:43:53.979Z,70.31
2018-10-02T12:44:54.147Z,67.63
2018-10-02T12:45:54.316Z,67.63
2018-10-02T12:46:54.516Z,67.63
2018-10-02T12:47:54.647Z,63.96
2018-10-02T12:48:54.819Z,75.20
2018-10-02T12:49:55.009Z,63.23
2018-10-02T12:50:55.156Z,62.01
2018-10-02T12:51:55.331Z,63.23
2018-10-02T12:52:55.822Z,61.04
2018-10-02T12:53:55.679Z,59.81
2018-10-02T12:54:55.856Z,64.21
2018-10-02T12:55:56.028Z,60.30
2018-10-02T12:56:56.206Z,77.39
2018-10-02T12:57:56.369Z,71.04
2018-10-02T12:58:56.538Z,60.79